sensor_id;sensor_type;location;lat;lon;timestamp;temperature;humidity
61841;DHT22;47773;53.174;6.614;2023-03-14T00:00:58;9.90;99.90
61841;DHT22;47773;53.174;6.614;2023-03-14T00:03:23;9.90;99.90
61841;DHT22;47773;53.174;6.614;2023-03-14T00:05:49;9.90;99.90
61841;DHT22;47773;53.174;6.614;2023-03-14T00:08:14;10.00;99.90
61841;DHT22;47773;53.174;6.614;2023-03-14T00:10:40;10.00;99.90
61841;DHT22;47773;53.174;6.614;2023-03-14T00:13:06;10.00;99.90
61841;DHT22;47773;53.174;6.614;2023-03-14T00:15:33;10.00;99.90
61841;DHT22;47773;53.174;6.614;2023-03-14T00:17:59;10.10;99.90
61841;DHT22;47773;53.174;6.614;2023-03-14T00:20:25;10.20;99.90
61841;DHT22;47773;53.174;6.614;2023-03-14T00:22:51;10.20;99.90
61841;DHT22;47773;53.174;6.614;2023-03-14T00:25:17;10.30;99.90
61841;DHT22;47773;53.174;6.614;2023-03-14T00:27:43;10.30;99.90
61841;DHT22;47773;53.174;6.614;2023-03-14T00:30:09;10.40;99.90
61841;DHT22;47773;53.174;6.614;2023-03-14T00:32:35;10.40;99.90
61841;DHT22;47773;53.174;6.614;2023-03-14T00:35:02;10.40;99.90
61841;DHT22;47773;53.174;6.614;2023-03-14T00:37:28;10.50;99.90
61841;DHT22;47773;53.174;6.614;2023-03-14T00:39:54;10.50;99.90
61841;DHT22;47773;53.174;6.614;2023-03-14T00:42:20;10.50;99.90
61841;DHT22;47773;53.174;6.614;2023-03-14T00:44:46;10.50;99.90
61841;DHT22;47773;53.174;6.614;2023-03-14T00:47:11;10.50;99.90
61841;DHT22;47773;53.174;6.614;2023-03-14T00:49:37;10.50;99.90
61841;DHT22;47773;53.174;6.614;2023-03-14T00:52:03;10.50;99.90
61841;DHT22;47773;53.174;6.614;2023-03-14T00:54:28;10.50;99.90
61841;DHT22;47773;53.174;6.614;2023-03-14T00:56:55;10.50;99.90
61841;DHT22;47773;53.174;6.614;2023-03-14T00:59:21;10.40;99.90
61841;DHT22;47773;53.174;6.614;2023-03-14T01:01:47;10.40;99.90
61841;DHT22;47773;53.174;6.614;2023-03-14T01:04:12;10.50;99.90
61841;DHT22;47773;53.174;6.614;2023-03-14T01:06:39;10.50;99.90
61841;DHT22;47773;53.174;6.614;2023-03-14T01:09:05;10.60;99.90
61841;DHT22;47773;53.174;6.614;2023-03-14T01:11:34;10.60;99.90
61841;DHT22;47773;53.174;6.614;2023-03-14T01:14:00;10.70;99.90
61841;DHT22;47773;53.174;6.614;2023-03-14T01:16:28;10.70;99.90
61841;DHT22;47773;53.174;6.614;2023-03-14T01:18:54;10.70;99.90
61841;DHT22;47773;53.174;6.614;2023-03-14T01:21:25;10.70;99.90
61841;DHT22;47773;53.174;6.614;2023-03-14T01:23:52;10.70;99.90
61841;DHT22;47773;53.174;6.614;2023-03-14T01:26:21;10.80;99.90
61841;DHT22;47773;53.174;6.614;2023-03-14T01:28:48;10.80;99.90
61841;DHT22;47773;53.174;6.614;2023-03-14T01:31:15;10.80;99.90
61841;DHT22;47773;53.174;6.614;2023-03-14T01:33:41;10.80;99.90
61841;DHT22;47773;53.174;6.614;2023-03-14T01:36:08;10.80;99.90
61841;DHT22;47773;53.174;6.614;2023-03-14T01:38:36;10.80;99.90
61841;DHT22;47773;53.174;6.614;2023-03-14T01:41:03;10.80;99.90
61841;DHT22;47773;53.174;6.614;2023-03-14T01:43:29;10.90;99.90
61841;DHT22;47773;53.174;6.614;2023-03-14T01:48:35;10.90;99.90
61841;DHT22;47773;53.174;6.614;2023-03-14T01:51:02;11.00;99.90
61841;DHT22;47773;53.174;6.614;2023-03-14T01:53:30;11.00;99.90
61841;DHT22;47773;53.174;6.614;2023-03-14T01:55:57;11.00;99.90
61841;DHT22;47773;53.174;6.614;2023-03-14T01:58:24;11.00;99.90
61841;DHT22;47773;53.174;6.614;2023-03-14T02:00:56;11.00;99.90
61841;DHT22;47773;53.174;6.614;2023-03-14T02:03:23;11.00;99.90
61841;DHT22;47773;53.174;6.614;2023-03-14T02:05:50;11.00;99.90
61841;DHT22;47773;53.174;6.614;2023-03-14T02:08:19;11.00;99.90
61841;DHT22;47773;53.174;6.614;2023-03-14T02:10:48;11.00;99.90
61841;DHT22;47773;53.174;6.614;2023-03-14T02:13:15;11.00;99.90
61841;DHT22;47773;53.174;6.614;2023-03-14T02:15:41;10.90;99.90
61841;DHT22;47773;53.174;6.614;2023-03-14T02:18:08;10.90;99.90
61841;DHT22;47773;53.174;6.614;2023-03-14T02:23:33;10.80;99.90
61841;DHT22;47773;53.174;6.614;2023-03-14T02:26:08;10.80;99.90
61841;DHT22;47773;53.174;6.614;2023-03-14T02:28:35;10.80;99.90
61841;DHT22;47773;53.174;6.614;2023-03-14T02:31:01;10.80;99.90
61841;DHT22;47773;53.174;6.614;2023-03-14T02:33:27;10.70;99.90
61841;DHT22;47773;53.174;6.614;2023-03-14T02:35:57;10.70;99.90
61841;DHT22;47773;53.174;6.614;2023-03-14T02:38:33;10.60;99.90
61841;DHT22;47773;53.174;6.614;2023-03-14T02:41:01;10.60;99.90
61841;DHT22;47773;53.174;6.614;2023-03-14T02:43:27;10.60;99.90
61841;DHT22;47773;53.174;6.614;2023-03-14T02:45:53;10.50;99.90
61841;DHT22;47773;53.174;6.614;2023-03-14T02:50:54;10.50;99.90
61841;DHT22;47773;53.174;6.614;2023-03-14T02:53:24;10.50;99.90
61841;DHT22;47773;53.174;6.614;2023-03-14T02:55:51;10.60;99.90
61841;DHT22;47773;53.174;6.614;2023-03-14T02:58:17;10.60;99.90
61841;DHT22;47773;53.174;6.614;2023-03-14T03:00:43;10.60;99.90
61841;DHT22;47773;53.174;6.614;2023-03-14T03:03:09;10.50;99.90
61841;DHT22;47773;53.174;6.614;2023-03-14T03:05:36;10.60;99.90
61841;DHT22;47773;53.174;6.614;2023-03-14T03:08:02;10.50;99.90
61841;DHT22;47773;53.174;6.614;2023-03-14T03:10:28;10.50;99.90
61841;DHT22;47773;53.174;6.614;2023-03-14T03:12:54;10.50;99.90
61841;DHT22;47773;53.174;6.614;2023-03-14T03:15:20;10.50;99.90
61841;DHT22;47773;53.174;6.614;2023-03-14T03:17:45;10.50;99.90
61841;DHT22;47773;53.174;6.614;2023-03-14T03:20:11;10.40;99.90
61841;DHT22;47773;53.174;6.614;2023-03-14T03:22:38;10.40;99.90
61841;DHT22;47773;53.174;6.614;2023-03-14T03:25:05;10.30;99.90
61841;DHT22;47773;53.174;6.614;2023-03-14T03:27:32;10.20;99.90
61841;DHT22;47773;53.174;6.614;2023-03-14T03:29:59;10.20;99.90
61841;DHT22;47773;53.174;6.614;2023-03-14T03:32:24;10.10;99.90
61841;DHT22;47773;53.174;6.614;2023-03-14T03:34:50;10.00;99.90
61841;DHT22;47773;53.174;6.614;2023-03-14T03:37:16;9.90;99.90
61841;DHT22;47773;53.174;6.614;2023-03-14T03:39:43;9.90;99.90
61841;DHT22;47773;53.174;6.614;2023-03-14T03:42:09;9.90;99.90
61841;DHT22;47773;53.174;6.614;2023-03-14T03:44:35;9.90;99.90
61841;DHT22;47773;53.174;6.614;2023-03-14T03:47:01;9.80;99.90
61841;DHT22;47773;53.174;6.614;2023-03-14T03:49:31;9.70;99.90
61841;DHT22;47773;53.174;6.614;2023-03-14T03:51:57;9.70;99.90
61841;DHT22;47773;53.174;6.614;2023-03-14T03:54:22;9.70;99.90
61841;DHT22;47773;53.174;6.614;2023-03-14T03:56:48;9.60;99.90
61841;DHT22;47773;53.174;6.614;2023-03-14T03:59:14;9.60;99.90
61841;DHT22;47773;53.174;6.614;2023-03-14T04:01:39;9.60;99.90
61841;DHT22;47773;53.174;6.614;2023-03-14T04:04:05;9.70;99.90
61841;DHT22;47773;53.174;6.614;2023-03-14T04:06:31;9.70;99.90
61841;DHT22;47773;53.174;6.614;2023-03-14T04:08:57;9.60;99.90
61841;DHT22;47773;53.174;6.614;2023-03-14T04:11:23;9.60;99.90
61841;DHT22;47773;53.174;6.614;2023-03-14T04:13:49;9.70;99.90
61841;DHT22;47773;53.174;6.614;2023-03-14T04:16:17;9.70;99.90
61841;DHT22;47773;53.174;6.614;2023-03-14T04:18:43;9.60;99.90
61841;DHT22;47773;53.174;6.614;2023-03-14T04:21:09;9.70;99.90
61841;DHT22;47773;53.174;6.614;2023-03-14T04:23:35;9.60;99.90
61841;DHT22;47773;53.174;6.614;2023-03-14T04:26:00;9.70;99.90
61841;DHT22;47773;53.174;6.614;2023-03-14T04:28:26;9.70;99.90
61841;DHT22;47773;53.174;6.614;2023-03-14T04:30:52;9.60;99.90
61841;DHT22;47773;53.174;6.614;2023-03-14T04:33:17;9.60;99.90
61841;DHT22;47773;53.174;6.614;2023-03-14T04:35:46;9.70;99.90
61841;DHT22;47773;53.174;6.614;2023-03-14T04:38:13;9.60;99.90
61841;DHT22;47773;53.174;6.614;2023-03-14T04:40:40;9.60;99.90
61841;DHT22;47773;53.174;6.614;2023-03-14T04:43:07;9.60;99.90
61841;DHT22;47773;53.174;6.614;2023-03-14T04:45:33;9.60;99.90
61841;DHT22;47773;53.174;6.614;2023-03-14T04:47:59;9.50;99.90
61841;DHT22;47773;53.174;6.614;2023-03-14T04:50:24;9.50;99.90
61841;DHT22;47773;53.174;6.614;2023-03-14T04:52:50;9.50;99.90
61841;DHT22;47773;53.174;6.614;2023-03-14T04:55:16;9.50;99.90
61841;DHT22;47773;53.174;6.614;2023-03-14T04:57:41;9.50;99.90
61841;DHT22;47773;53.174;6.614;2023-03-14T05:00:09;9.50;99.90
61841;DHT22;47773;53.174;6.614;2023-03-14T05:02:35;9.50;99.90
61841;DHT22;47773;53.174;6.614;2023-03-14T05:05:00;9.50;99.90
61841;DHT22;47773;53.174;6.614;2023-03-14T05:07:26;9.40;99.90
61841;DHT22;47773;53.174;6.614;2023-03-14T05:09:52;9.50;99.90
61841;DHT22;47773;53.174;6.614;2023-03-14T05:12:19;9.40;99.90
61841;DHT22;47773;53.174;6.614;2023-03-14T05:14:45;9.40;99.90
61841;DHT22;47773;53.174;6.614;2023-03-14T05:17:11;9.40;99.90
61841;DHT22;47773;53.174;6.614;2023-03-14T05:19:40;9.40;99.90
61841;DHT22;47773;53.174;6.614;2023-03-14T05:22:06;9.40;99.90
61841;DHT22;47773;53.174;6.614;2023-03-14T05:24:31;9.40;99.90
61841;DHT22;47773;53.174;6.614;2023-03-14T05:26:57;9.40;99.90
61841;DHT22;47773;53.174;6.614;2023-03-14T05:29:23;9.40;99.90
61841;DHT22;47773;53.174;6.614;2023-03-14T05:31:49;9.30;99.90
61841;DHT22;47773;53.174;6.614;2023-03-14T05:34:14;9.30;99.90
61841;DHT22;47773;53.174;6.614;2023-03-14T05:36:40;9.40;99.90
61841;DHT22;47773;53.174;6.614;2023-03-14T05:39:06;9.40;99.90
61841;DHT22;47773;53.174;6.614;2023-03-14T05:41:31;9.40;99.90
61841;DHT22;47773;53.174;6.614;2023-03-14T05:43:57;9.40;99.90
61841;DHT22;47773;53.174;6.614;2023-03-14T05:46:22;9.40;99.90
61841;DHT22;47773;53.174;6.614;2023-03-14T05:48:48;9.30;99.90
61841;DHT22;47773;53.174;6.614;2023-03-14T05:51:14;9.40;99.90
61841;DHT22;47773;53.174;6.614;2023-03-14T05:53:39;9.40;99.90
61841;DHT22;47773;53.174;6.614;2023-03-14T05:56:05;9.40;99.90
61841;DHT22;47773;53.174;6.614;2023-03-14T05:58:31;9.40;99.90
61841;DHT22;47773;53.174;6.614;2023-03-14T06:00:57;9.40;99.90
61841;DHT22;47773;53.174;6.614;2023-03-14T06:03:22;9.40;99.90
61841;DHT22;47773;53.174;6.614;2023-03-14T06:05:51;9.40;99.90
61841;DHT22;47773;53.174;6.614;2023-03-14T06:08:16;9.40;99.90
61841;DHT22;47773;53.174;6.614;2023-03-14T06:10:42;9.30;99.90
61841;DHT22;47773;53.174;6.614;2023-03-14T06:13:08;9.40;99.90
61841;DHT22;47773;53.174;6.614;2023-03-14T06:15:33;9.40;99.90
61841;DHT22;47773;53.174;6.614;2023-03-14T06:18:00;9.40;99.90
61841;DHT22;47773;53.174;6.614;2023-03-14T06:20:26;9.40;99.90
61841;DHT22;47773;53.174;6.614;2023-03-14T06:22:51;9.40;99.90
61841;DHT22;47773;53.174;6.614;2023-03-14T06:25:17;9.40;99.90
61841;DHT22;47773;53.174;6.614;2023-03-14T06:27:43;9.40;99.90
61841;DHT22;47773;53.174;6.614;2023-03-14T06:30:09;9.40;99.90
61841;DHT22;47773;53.174;6.614;2023-03-14T06:32:35;9.40;99.90
61841;DHT22;47773;53.174;6.614;2023-03-14T06:35:01;9.40;99.90
61841;DHT22;47773;53.174;6.614;2023-03-14T06:37:27;9.40;99.90
61841;DHT22;47773;53.174;6.614;2023-03-14T06:39:54;9.40;99.90
61841;DHT22;47773;53.174;6.614;2023-03-14T06:42:20;9.20;99.90
61841;DHT22;47773;53.174;6.614;2023-03-14T06:44:45;9.10;99.90
61841;DHT22;47773;53.174;6.614;2023-03-14T06:47:12;8.80;99.90
61841;DHT22;47773;53.174;6.614;2023-03-14T06:49:37;8.60;99.90
61841;DHT22;47773;53.174;6.614;2023-03-14T06:52:03;8.60;99.90
61841;DHT22;47773;53.174;6.614;2023-03-14T06:54:29;8.40;99.90
61841;DHT22;47773;53.174;6.614;2023-03-14T06:56:54;8.20;99.90
61841;DHT22;47773;53.174;6.614;2023-03-14T06:59:20;8.10;99.90
61841;DHT22;47773;53.174;6.614;2023-03-14T07:01:46;7.90;99.90
61841;DHT22;47773;53.174;6.614;2023-03-14T07:04:13;7.80;99.90
61841;DHT22;47773;53.174;6.614;2023-03-14T07:06:39;7.60;99.90
61841;DHT22;47773;53.174;6.614;2023-03-14T07:09:10;7.50;99.90
61841;DHT22;47773;53.174;6.614;2023-03-14T07:11:36;7.20;99.90
61841;DHT22;47773;53.174;6.614;2023-03-14T07:14:02;7.10;99.90
61841;DHT22;47773;53.174;6.614;2023-03-14T07:16:27;6.90;99.90
61841;DHT22;47773;53.174;6.614;2023-03-14T07:18:57;6.80;99.90
61841;DHT22;47773;53.174;6.614;2023-03-14T07:21:23;6.60;99.90
61841;DHT22;47773;53.174;6.614;2023-03-14T07:23:48;6.40;99.90
61841;DHT22;47773;53.174;6.614;2023-03-14T07:26:14;6.30;99.90
61841;DHT22;47773;53.174;6.614;2023-03-14T07:28:40;6.10;99.90
61841;DHT22;47773;53.174;6.614;2023-03-14T07:31:05;6.10;99.90
61841;DHT22;47773;53.174;6.614;2023-03-14T07:33:31;5.90;99.90
61841;DHT22;47773;53.174;6.614;2023-03-14T07:35:58;5.70;99.90
61841;DHT22;47773;53.174;6.614;2023-03-14T07:38:23;5.80;99.90
61841;DHT22;47773;53.174;6.614;2023-03-14T07:40:49;5.70;99.90
61841;DHT22;47773;53.174;6.614;2023-03-14T07:43:15;5.60;99.90
61841;DHT22;47773;53.174;6.614;2023-03-14T07:45:40;5.60;99.90
61841;DHT22;47773;53.174;6.614;2023-03-14T07:48:06;5.50;99.90
61841;DHT22;47773;53.174;6.614;2023-03-14T07:50:32;5.50;99.90
61841;DHT22;47773;53.174;6.614;2023-03-14T07:52:57;5.50;99.90
61841;DHT22;47773;53.174;6.614;2023-03-14T07:55:23;5.40;99.90
61841;DHT22;47773;53.174;6.614;2023-03-14T07:57:49;5.40;99.90
61841;DHT22;47773;53.174;6.614;2023-03-14T08:00:15;5.30;99.90
61841;DHT22;47773;53.174;6.614;2023-03-14T08:02:41;5.30;99.90
61841;DHT22;47773;53.174;6.614;2023-03-14T08:05:07;5.30;99.90
61841;DHT22;47773;53.174;6.614;2023-03-14T08:07:32;5.20;99.90
61841;DHT22;47773;53.174;6.614;2023-03-14T08:09:58;5.20;99.90
61841;DHT22;47773;53.174;6.614;2023-03-14T08:12:23;5.30;99.90
61841;DHT22;47773;53.174;6.614;2023-03-14T08:14:49;5.30;99.90
61841;DHT22;47773;53.174;6.614;2023-03-14T08:17:15;5.40;99.90
61841;DHT22;47773;53.174;6.614;2023-03-14T08:19:43;5.40;99.90
61841;DHT22;47773;53.174;6.614;2023-03-14T08:22:09;5.50;99.90
61841;DHT22;47773;53.174;6.614;2023-03-14T08:24:35;5.60;99.90
61841;DHT22;47773;53.174;6.614;2023-03-14T08:27:00;5.70;99.90
61841;DHT22;47773;53.174;6.614;2023-03-14T08:29:26;5.80;99.90
61841;DHT22;47773;53.174;6.614;2023-03-14T08:31:52;5.80;99.90
61841;DHT22;47773;53.174;6.614;2023-03-14T08:34:17;5.90;99.90
61841;DHT22;47773;53.174;6.614;2023-03-14T08:36:43;5.90;99.90
61841;DHT22;47773;53.174;6.614;2023-03-14T08:39:09;5.90;99.90
61841;DHT22;47773;53.174;6.614;2023-03-14T08:41:35;6.00;99.90
61841;DHT22;47773;53.174;6.614;2023-03-14T08:44:06;6.00;99.90
61841;DHT22;47773;53.174;6.614;2023-03-14T08:46:32;6.00;99.90
61841;DHT22;47773;53.174;6.614;2023-03-14T08:48:58;6.10;99.90
61841;DHT22;47773;53.174;6.614;2023-03-14T08:51:23;6.20;99.90
61841;DHT22;47773;53.174;6.614;2023-03-14T08:53:49;6.30;99.90
61841;DHT22;47773;53.174;6.614;2023-03-14T08:56:15;6.20;99.90
61841;DHT22;47773;53.174;6.614;2023-03-14T08:58:40;6.20;99.90
61841;DHT22;47773;53.174;6.614;2023-03-14T09:01:08;6.30;99.90
61841;DHT22;47773;53.174;6.614;2023-03-14T09:03:34;6.40;99.90
61841;DHT22;47773;53.174;6.614;2023-03-14T09:06:08;6.50;99.90
61841;DHT22;47773;53.174;6.614;2023-03-14T09:08:34;6.50;99.90
61841;DHT22;47773;53.174;6.614;2023-03-14T09:11:00;6.50;99.90
61841;DHT22;47773;53.174;6.614;2023-03-14T09:13:26;6.60;99.90
61841;DHT22;47773;53.174;6.614;2023-03-14T09:15:56;6.60;99.90
61841;DHT22;47773;53.174;6.614;2023-03-14T09:18:23;6.70;99.90
61841;DHT22;47773;53.174;6.614;2023-03-14T09:20:49;6.80;99.90
61841;DHT22;47773;53.174;6.614;2023-03-14T09:23:15;7.00;99.90
61841;DHT22;47773;53.174;6.614;2023-03-14T09:25:41;7.10;99.90
61841;DHT22;47773;53.174;6.614;2023-03-14T09:28:07;7.20;99.90
61841;DHT22;47773;53.174;6.614;2023-03-14T09:30:33;7.20;99.90
61841;DHT22;47773;53.174;6.614;2023-03-14T09:32:58;7.20;99.90
61841;DHT22;47773;53.174;6.614;2023-03-14T09:35:24;7.20;99.90
61841;DHT22;47773;53.174;6.614;2023-03-14T09:37:50;7.20;99.90
61841;DHT22;47773;53.174;6.614;2023-03-14T09:40:17;7.20;99.90
61841;DHT22;47773;53.174;6.614;2023-03-14T09:42:43;7.20;99.90
61841;DHT22;47773;53.174;6.614;2023-03-14T09:45:18;7.20;99.90
61841;DHT22;47773;53.174;6.614;2023-03-14T09:47:47;7.10;99.90
61841;DHT22;47773;53.174;6.614;2023-03-14T09:50:16;7.10;99.90
61841;DHT22;47773;53.174;6.614;2023-03-14T09:52:51;7.20;99.90
61841;DHT22;47773;53.174;6.614;2023-03-14T09:55:20;7.20;99.90
61841;DHT22;47773;53.174;6.614;2023-03-14T09:57:51;7.30;99.90
61841;DHT22;47773;53.174;6.614;2023-03-14T10:00:30;7.30;99.90
61841;DHT22;47773;53.174;6.614;2023-03-14T10:05:42;7.30;99.90
61841;DHT22;47773;53.174;6.614;2023-03-14T10:08:12;7.30;99.90
61841;DHT22;47773;53.174;6.614;2023-03-14T10:10:38;7.40;99.90
61841;DHT22;47773;53.174;6.614;2023-03-14T10:15:37;7.20;99.90
61841;DHT22;47773;53.174;6.614;2023-03-14T10:18:05;7.20;99.90
61841;DHT22;47773;53.174;6.614;2023-03-14T10:20:48;7.30;99.90
61841;DHT22;47773;53.174;6.614;2023-03-14T10:25:45;7.40;99.90
61841;DHT22;47773;53.174;6.614;2023-03-14T10:28:26;7.40;99.90
61841;DHT22;47773;53.174;6.614;2023-03-14T10:30:53;7.50;99.90
61841;DHT22;47773;53.174;6.614;2023-03-14T10:33:25;7.60;99.90
61841;DHT22;47773;53.174;6.614;2023-03-14T10:36:16;7.80;99.90
61841;DHT22;47773;53.174;6.614;2023-03-14T10:38:43;7.80;99.90
61841;DHT22;47773;53.174;6.614;2023-03-14T10:41:35;7.80;99.90
61841;DHT22;47773;53.174;6.614;2023-03-14T10:44:02;7.90;99.90
61841;DHT22;47773;53.174;6.614;2023-03-14T10:46:30;7.90;99.90
61841;DHT22;47773;53.174;6.614;2023-03-14T10:48:57;7.90;99.90
61841;DHT22;47773;53.174;6.614;2023-03-14T10:51:28;7.90;99.90
61841;DHT22;47773;53.174;6.614;2023-03-14T10:54:01;8.00;99.90
61841;DHT22;47773;53.174;6.614;2023-03-14T10:56:33;8.20;99.90
61841;DHT22;47773;53.174;6.614;2023-03-14T10:58:59;8.30;99.90
61841;DHT22;47773;53.174;6.614;2023-03-14T11:01:39;8.20;99.90
61841;DHT22;47773;53.174;6.614;2023-03-14T11:04:49;8.10;99.90
61841;DHT22;47773;53.174;6.614;2023-03-14T11:07:23;8.10;96.70
61841;DHT22;47773;53.174;6.614;2023-03-14T11:12:36;8.00;99.90
61841;DHT22;47773;53.174;6.614;2023-03-14T11:21:12;8.20;96.10
61841;DHT22;47773;53.174;6.614;2023-03-14T11:24:03;8.40;96.10
61841;DHT22;47773;53.174;6.614;2023-03-14T11:26:51;8.40;91.70
61841;DHT22;47773;53.174;6.614;2023-03-14T11:32:36;8.10;69.30
61841;DHT22;47773;53.174;6.614;2023-03-14T11:35:04;8.10;79.90
61841;DHT22;47773;53.174;6.614;2023-03-14T11:37:40;8.30;86.50
61841;DHT22;47773;53.174;6.614;2023-03-14T11:40:18;8.40;88.00
61841;DHT22;47773;53.174;6.614;2023-03-14T11:42:51;8.40;78.00
61841;DHT22;47773;53.174;6.614;2023-03-14T11:45:25;8.30;81.30
61841;DHT22;47773;53.174;6.614;2023-03-14T11:48:10;8.20;77.80
61841;DHT22;47773;53.174;6.614;2023-03-14T11:50:40;8.10;71.50
61841;DHT22;47773;53.174;6.614;2023-03-14T11:55:56;8.20;85.60
61841;DHT22;47773;53.174;6.614;2023-03-14T11:58:37;8.50;83.80
61841;DHT22;47773;53.174;6.614;2023-03-14T12:01:09;8.60;73.10
61841;DHT22;47773;53.174;6.614;2023-03-14T12:03:42;8.90;77.70
61841;DHT22;47773;53.174;6.614;2023-03-14T12:08:52;9.20;74.30
61841;DHT22;47773;53.174;6.614;2023-03-14T12:11:19;9.30;76.80
61841;DHT22;47773;53.174;6.614;2023-03-14T12:13:51;9.10;75.10
61841;DHT22;47773;53.174;6.614;2023-03-14T12:18:52;8.80;74.60
61841;DHT22;47773;53.174;6.614;2023-03-14T12:21:18;8.70;76.10
61841;DHT22;47773;53.174;6.614;2023-03-14T12:23:52;8.60;78.20
61841;DHT22;47773;53.174;6.614;2023-03-14T12:26:52;8.60;82.50
61841;DHT22;47773;53.174;6.614;2023-03-14T12:29:19;8.50;76.70
61841;DHT22;47773;53.174;6.614;2023-03-14T12:31:47;8.40;86.60
61841;DHT22;47773;53.174;6.614;2023-03-14T12:42:09;8.30;83.00
61841;DHT22;47773;53.174;6.614;2023-03-14T12:44:41;8.20;82.40
61841;DHT22;47773;53.174;6.614;2023-03-14T12:49:55;8.00;84.60
61841;DHT22;47773;53.174;6.614;2023-03-14T12:52:49;8.00;91.50
61841;DHT22;47773;53.174;6.614;2023-03-14T12:55:58;8.20;91.00
61841;DHT22;47773;53.174;6.614;2023-03-14T12:58:29;8.30;90.00
61841;DHT22;47773;53.174;6.614;2023-03-14T13:01:03;8.40;91.00
61841;DHT22;47773;53.174;6.614;2023-03-14T13:06:10;8.20;79.10
61841;DHT22;47773;53.174;6.614;2023-03-14T13:08:45;8.10;86.00
61841;DHT22;47773;53.174;6.614;2023-03-14T13:11:20;8.00;87.10
61841;DHT22;47773;53.174;6.614;2023-03-14T13:13:56;8.00;86.50
61841;DHT22;47773;53.174;6.614;2023-03-14T13:16:23;8.10;88.90
61841;DHT22;47773;53.174;6.614;2023-03-14T13:18:50;8.10;86.70
61841;DHT22;47773;53.174;6.614;2023-03-14T13:21:28;8.20;82.20
61841;DHT22;47773;53.174;6.614;2023-03-14T13:24:05;8.30;78.50
61841;DHT22;47773;53.174;6.614;2023-03-14T13:26:40;8.40;77.70
61841;DHT22;47773;53.174;6.614;2023-03-14T13:29:20;8.50;77.60
61841;DHT22;47773;53.174;6.614;2023-03-14T13:31:48;8.60;75.60
61841;DHT22;47773;53.174;6.614;2023-03-14T13:34:15;8.50;79.30
61841;DHT22;47773;53.174;6.614;2023-03-14T13:36:41;8.50;77.40
61841;DHT22;47773;53.174;6.614;2023-03-14T13:39:12;8.50;77.90
61841;DHT22;47773;53.174;6.614;2023-03-14T13:41:41;8.50;71.30
61841;DHT22;47773;53.174;6.614;2023-03-14T13:44:12;8.40;74.40
61841;DHT22;47773;53.174;6.614;2023-03-14T13:46:39;8.20;72.60
61841;DHT22;47773;53.174;6.614;2023-03-14T13:49:09;8.20;73.10
61841;DHT22;47773;53.174;6.614;2023-03-14T13:51:38;8.10;74.20
61841;DHT22;47773;53.174;6.614;2023-03-14T13:54:17;8.10;73.70
61841;DHT22;47773;53.174;6.614;2023-03-14T13:56:43;8.20;71.70
61841;DHT22;47773;53.174;6.614;2023-03-14T13:59:29;8.30;74.60
61841;DHT22;47773;53.174;6.614;2023-03-14T14:01:57;8.50;75.40
61841;DHT22;47773;53.174;6.614;2023-03-14T14:04:25;8.60;75.80
61841;DHT22;47773;53.174;6.614;2023-03-14T14:06:57;8.60;72.10
61841;DHT22;47773;53.174;6.614;2023-03-14T14:09:29;8.40;72.70
61841;DHT22;47773;53.174;6.614;2023-03-14T14:12:02;8.30;74.70
61841;DHT22;47773;53.174;6.614;2023-03-14T14:14:31;8.20;74.60
61841;DHT22;47773;53.174;6.614;2023-03-14T14:16:58;8.20;76.80
61841;DHT22;47773;53.174;6.614;2023-03-14T14:19:28;8.10;76.70
61841;DHT22;47773;53.174;6.614;2023-03-14T14:21:56;8.10;73.60
61841;DHT22;47773;53.174;6.614;2023-03-14T14:24:24;8.10;72.50
61841;DHT22;47773;53.174;6.614;2023-03-14T14:26:58;8.00;73.90
61841;DHT22;47773;53.174;6.614;2023-03-14T14:29:30;8.00;70.50
61841;DHT22;47773;53.174;6.614;2023-03-14T14:32:09;7.90;70.00
61841;DHT22;47773;53.174;6.614;2023-03-14T14:34:42;7.90;71.40
61841;DHT22;47773;53.174;6.614;2023-03-14T14:37:20;8.00;72.90
61841;DHT22;47773;53.174;6.614;2023-03-14T14:39:46;8.10;74.50
61841;DHT22;47773;53.174;6.614;2023-03-14T14:42:15;8.20;75.80
61841;DHT22;47773;53.174;6.614;2023-03-14T14:44:47;8.20;76.00
61841;DHT22;47773;53.174;6.614;2023-03-14T14:47:20;8.30;77.40
61841;DHT22;47773;53.174;6.614;2023-03-14T14:49:47;8.20;78.10
61841;DHT22;47773;53.174;6.614;2023-03-14T14:52:19;8.10;78.20
61841;DHT22;47773;53.174;6.614;2023-03-14T14:54:47;8.00;81.00
61841;DHT22;47773;53.174;6.614;2023-03-14T14:57:25;7.80;87.30
61841;DHT22;47773;53.174;6.614;2023-03-14T14:59:56;7.60;91.30
61841;DHT22;47773;53.174;6.614;2023-03-14T15:04:54;7.60;96.50
61841;DHT22;47773;53.174;6.614;2023-03-14T15:07:19;7.60;97.10
61841;DHT22;47773;53.174;6.614;2023-03-14T15:09:45;7.60;96.80
61841;DHT22;47773;53.174;6.614;2023-03-14T15:12:11;7.60;96.10
61841;DHT22;47773;53.174;6.614;2023-03-14T15:14:36;7.70;95.40
61841;DHT22;47773;53.174;6.614;2023-03-14T15:17:02;7.70;92.80
61841;DHT22;47773;53.174;6.614;2023-03-14T15:19:28;7.80;89.20
61841;DHT22;47773;53.174;6.614;2023-03-14T15:21:58;7.80;85.60
61841;DHT22;47773;53.174;6.614;2023-03-14T15:24:24;7.70;83.70
61841;DHT22;47773;53.174;6.614;2023-03-14T15:26:50;7.60;84.70
61841;DHT22;47773;53.174;6.614;2023-03-14T15:29:16;7.60;82.30
61841;DHT22;47773;53.174;6.614;2023-03-14T15:31:41;7.40;83.00
61841;DHT22;47773;53.174;6.614;2023-03-14T15:34:09;7.40;84.00
61841;DHT22;47773;53.174;6.614;2023-03-14T15:36:36;7.40;84.50
61841;DHT22;47773;53.174;6.614;2023-03-14T15:39:04;7.40;83.20
61841;DHT22;47773;53.174;6.614;2023-03-14T15:41:30;7.40;84.70
61841;DHT22;47773;53.174;6.614;2023-03-14T15:43:55;7.40;85.40
61841;DHT22;47773;53.174;6.614;2023-03-14T15:46:21;7.50;86.20
61841;DHT22;47773;53.174;6.614;2023-03-14T15:48:48;7.60;88.20
61841;DHT22;47773;53.174;6.614;2023-03-14T15:51:14;7.60;87.90
61841;DHT22;47773;53.174;6.614;2023-03-14T15:53:41;7.60;88.30
61841;DHT22;47773;53.174;6.614;2023-03-14T15:56:15;7.60;86.10
61841;DHT22;47773;53.174;6.614;2023-03-14T15:58:41;7.70;84.80
61841;DHT22;47773;53.174;6.614;2023-03-14T16:01:08;7.70;86.50
61841;DHT22;47773;53.174;6.614;2023-03-14T16:03:36;7.70;85.00
61841;DHT22;47773;53.174;6.614;2023-03-14T16:06:03;7.60;90.20
61841;DHT22;47773;53.174;6.614;2023-03-14T16:08:29;7.50;91.60
61841;DHT22;47773;53.174;6.614;2023-03-14T16:10:56;7.30;92.40
61841;DHT22;47773;53.174;6.614;2023-03-14T16:13:22;7.20;93.50
61841;DHT22;47773;53.174;6.614;2023-03-14T16:15:58;7.10;94.30
61841;DHT22;47773;53.174;6.614;2023-03-14T16:18:26;7.10;94.70
61841;DHT22;47773;53.174;6.614;2023-03-14T16:20:54;7.00;94.60
61841;DHT22;47773;53.174;6.614;2023-03-14T16:23:20;6.90;95.80
61841;DHT22;47773;53.174;6.614;2023-03-14T16:25:46;6.90;96.30
61841;DHT22;47773;53.174;6.614;2023-03-14T16:28:12;6.90;96.10
61841;DHT22;47773;53.174;6.614;2023-03-14T16:30:38;6.80;96.60
61841;DHT22;47773;53.174;6.614;2023-03-14T16:33:03;6.80;96.10
61841;DHT22;47773;53.174;6.614;2023-03-14T16:35:37;6.60;99.90
61841;DHT22;47773;53.174;6.614;2023-03-14T16:38:03;6.40;99.90
61841;DHT22;47773;53.174;6.614;2023-03-14T16:40:28;6.20;99.90